createdAt,value
2023-03-03T00:01:47.190Z,1.40
2023-03-03T00:04:13.857Z,1.50
2023-03-03T00:06:40.477Z,1.50
2023-03-03T00:09:07.068Z,1.40
2023-03-03T00:11:33.700Z,1.40
2023-03-03T00:14:00.346Z,1.40
2023-03-03T00:16:38.548Z,1.40
2023-03-03T00:19:20.489Z,1.40
2023-03-03T00:21:49.075Z,1.40
2023-03-03T00:24:21.852Z,1.30
2023-03-03T00:26:57.555Z,1.40
2023-03-03T00:29:37.314Z,1.30
2023-03-03T00:32:15.679Z,1.40
2023-03-03T00:34:43.678Z,1.30
2023-03-03T00:37:29.140Z,1.40
2023-03-03T00:40:14.876Z,1.30
2023-03-03T00:42:42.780Z,1.30
2023-03-03T00:45:26.943Z,1.20
2023-03-03T00:47:54.294Z,1.20
2023-03-03T00:50:33.258Z,1.20
2023-03-03T00:53:17.373Z,1.10
2023-03-03T00:55:45.272Z,1.20
2023-03-03T00:58:12.721Z,1.10
2023-03-03T01:00:43.516Z,1.10
2023-03-03T01:03:16.102Z,1.20
2023-03-03T01:05:43.570Z,1.30
2023-03-03T01:08:10.631Z,1.20
2023-03-03T01:10:42.283Z,1.20
2023-03-03T01:13:09.911Z,1.20
2023-03-03T01:15:37.582Z,1.30
2023-03-03T01:18:04.207Z,1.20
2023-03-03T01:20:30.893Z,1.10
2023-03-03T01:22:57.511Z,1.10
2023-03-03T01:25:24.161Z,1.10
2023-03-03T01:27:50.871Z,1.10
2023-03-03T01:30:17.946Z,1.10
2023-03-03T01:32:44.655Z,1.10
2023-03-03T01:35:11.680Z,1.10
2023-03-03T01:37:38.627Z,1.10
2023-03-03T01:40:12.338Z,1.20
2023-03-03T01:42:38.928Z,1.20
2023-03-03T01:45:26.929Z,1.10
2023-03-03T01:48:07.365Z,1.20
2023-03-03T01:50:51.384Z,1.20
2023-03-03T01:53:28.219Z,1.20
2023-03-03T01:55:55.071Z,1.20
2023-03-03T01:58:38.678Z,1.10
2023-03-03T02:01:12.291Z,1.20
2023-03-03T02:03:39.726Z,1.10
2023-03-03T02:06:12.257Z,1.20
2023-03-03T02:09:19.023Z,1.20
2023-03-03T02:11:48.917Z,1.20
2023-03-03T02:14:15.522Z,1.20
2023-03-03T02:16:43.304Z,1.10
2023-03-03T02:19:27.927Z,1.10
2023-03-03T02:21:55.023Z,1.10
2023-03-03T02:24:29.960Z,1.10
2023-03-03T02:26:56.772Z,1.10
2023-03-03T02:29:23.371Z,1.00
2023-03-03T02:31:50.654Z,1.00
2023-03-03T02:34:17.731Z,1.00
2023-03-03T02:36:44.358Z,1.00
2023-03-03T02:39:21.094Z,0.90
2023-03-03T02:41:57.464Z,0.90
2023-03-03T02:44:31.306Z,0.80
2023-03-03T02:46:59.000Z,0.80
2023-03-03T02:49:32.469Z,0.80
2023-03-03T02:52:01.266Z,0.70
2023-03-03T02:54:30.874Z,0.70
2023-03-03T02:56:59.087Z,0.70
2023-03-03T02:59:27.283Z,0.70
2023-03-03T03:01:55.020Z,0.70
2023-03-03T03:04:25.232Z,0.70
2023-03-03T03:06:53.863Z,0.60
2023-03-03T03:09:23.421Z,0.60
2023-03-03T03:11:51.710Z,0.60
2023-03-03T03:14:21.406Z,0.50
2023-03-03T03:16:48.203Z,0.50
2023-03-03T03:19:14.938Z,0.50
2023-03-03T03:21:43.036Z,0.40
2023-03-03T03:24:10.843Z,0.50
2023-03-03T03:26:41.869Z,0.50
2023-03-03T03:29:09.268Z,0.50
2023-03-03T03:31:36.407Z,0.60
2023-03-03T03:34:03.600Z,0.60
2023-03-03T03:36:30.841Z,0.50
2023-03-03T03:38:57.795Z,0.50
2023-03-03T03:41:24.974Z,0.50
2023-03-03T03:43:51.627Z,0.60
2023-03-03T03:46:18.483Z,0.50
2023-03-03T03:48:45.730Z,0.50
2023-03-03T03:51:13.789Z,0.50
2023-03-03T03:53:41.336Z,0.40
2023-03-03T03:56:08.119Z,0.40
2023-03-03T03:58:34.997Z,0.50
2023-03-03T04:01:06.912Z,0.40
2023-03-03T04:03:37.334Z,0.40
2023-03-03T04:06:08.233Z,0.40
2023-03-03T04:08:35.058Z,0.40
2023-03-03T04:11:02.465Z,0.30
2023-03-03T04:13:31.883Z,0.30
2023-03-03T04:15:59.810Z,0.40
2023-03-03T04:18:26.981Z,0.40
2023-03-03T04:20:54.670Z,0.40
2023-03-03T04:23:21.774Z,0.30
2023-03-03T04:25:49.571Z,0.30
2023-03-03T04:28:16.985Z,0.30
2023-03-03T04:30:44.386Z,0.30
2023-03-03T04:33:11.400Z,0.20
2023-03-03T04:35:40.378Z,0.20
2023-03-03T04:38:07.050Z,0.20
2023-03-03T04:40:35.117Z,0.20
2023-03-03T04:43:04.043Z,0.20
2023-03-03T04:45:31.056Z,0.20
2023-03-03T04:47:57.677Z,0.20
2023-03-03T04:50:24.367Z,0.20
2023-03-03T04:52:51.294Z,0.30
2023-03-03T04:55:18.239Z,0.30
2023-03-03T04:57:47.157Z,0.30
2023-03-03T05:00:14.874Z,0.30
2023-03-03T05:02:42.256Z,0.30
2023-03-03T05:05:10.503Z,0.30
2023-03-03T05:07:37.132Z,0.30
2023-03-03T05:10:04.107Z,0.20
2023-03-03T05:12:30.736Z,0.30
2023-03-03T05:14:57.342Z,0.30
2023-03-03T05:17:23.946Z,0.30
2023-03-03T05:19:50.550Z,0.20
2023-03-03T05:22:18.171Z,0.20
2023-03-03T05:24:48.894Z,0.20
2023-03-03T05:27:18.670Z,0.20
2023-03-03T05:29:45.562Z,0.20
2023-03-03T05:32:12.285Z,0.20
2023-03-03T05:34:39.076Z,0.20
2023-03-03T05:37:06.639Z,0.20
2023-03-03T05:39:34.431Z,0.20
2023-03-03T05:42:01.269Z,0.20
2023-03-03T05:44:28.311Z,0.20
2023-03-03T05:46:56.557Z,0.20
2023-03-03T05:49:23.321Z,0.10
2023-03-03T05:51:49.906Z,0.10
2023-03-03T05:54:16.516Z,0.00
2023-03-03T05:56:43.119Z,0.00
2023-03-03T05:59:09.797Z,0.10
2023-03-03T06:01:36.420Z,0.10
2023-03-03T06:04:03.354Z,0.10
2023-03-03T06:06:30.057Z,0.10
2023-03-03T06:08:57.685Z,0.10
2023-03-03T06:11:24.412Z,0.00
2023-03-03T06:13:51.156Z,0.10
2023-03-03T06:16:18.151Z,0.00
2023-03-03T06:18:44.837Z,0.10
2023-03-03T06:21:11.492Z,0.10
2023-03-03T06:23:38.201Z,0.10
2023-03-03T06:26:05.130Z,0.10
2023-03-03T06:28:31.731Z,0.10
2023-03-03T06:30:58.360Z,0.10
2023-03-03T06:33:25.071Z,0.10
2023-03-03T06:35:52.824Z,0.10
2023-03-03T06:38:19.904Z,0.10
2023-03-03T06:40:47.628Z,0.10
2023-03-03T06:43:14.346Z,0.10
2023-03-03T06:45:41.184Z,0.10
2023-03-03T06:48:07.786Z,0.10
2023-03-03T06:50:34.872Z,0.00
2023-03-03T06:53:15.820Z,0.10
2023-03-03T06:55:44.746Z,0.10
2023-03-03T06:58:17.395Z,0.20
2023-03-03T07:01:09.660Z,0.10
2023-03-03T07:03:36.484Z,0.20
2023-03-03T07:06:16.155Z,0.20
2023-03-03T07:08:43.022Z,0.30
2023-03-03T07:11:16.259Z,0.40
2023-03-03T07:13:54.000Z,0.40
2023-03-03T07:16:26.602Z,0.40
2023-03-03T07:19:01.684Z,0.40
2023-03-03T07:21:34.947Z,0.40
2023-03-03T07:24:14.193Z,0.30
2023-03-03T07:26:40.776Z,0.30
2023-03-03T07:29:24.252Z,0.30
2023-03-03T07:31:51.173Z,0.20
2023-03-03T07:34:28.359Z,0.20
2023-03-03T07:37:01.360Z,0.20
2023-03-03T07:39:37.207Z,0.20
2023-03-03T07:42:10.912Z,0.20
2023-03-03T07:44:38.188Z,0.30
2023-03-03T07:47:19.297Z,0.30
2023-03-03T07:49:47.027Z,0.30
2023-03-03T07:52:26.490Z,0.40
2023-03-03T07:54:55.288Z,0.40
2023-03-03T07:57:26.801Z,0.40
2023-03-03T08:00:16.492Z,0.40
2023-03-03T08:03:02.722Z,0.40
2023-03-03T08:05:37.617Z,0.50
2023-03-03T08:08:19.072Z,0.50
2023-03-03T08:10:56.805Z,0.50
2023-03-03T08:13:29.056Z,0.60
2023-03-03T08:16:09.342Z,0.70
2023-03-03T08:18:48.301Z,0.70
2023-03-03T08:21:17.750Z,0.60
2023-03-03T08:23:44.730Z,0.60
2023-03-03T08:26:14.925Z,0.70
2023-03-03T08:28:41.605Z,0.80
2023-03-03T08:31:20.042Z,0.90
2023-03-03T08:33:51.804Z,0.80
2023-03-03T08:36:18.721Z,0.80
2023-03-03T08:38:45.594Z,0.80
2023-03-03T08:41:12.212Z,0.80
2023-03-03T08:43:38.839Z,0.90
2023-03-03T08:46:07.227Z,0.90
2023-03-03T08:48:33.992Z,0.80
2023-03-03T08:51:00.902Z,1.00
2023-03-03T08:53:27.973Z,1.50
2023-03-03T08:55:54.852Z,1.80
2023-03-03T08:58:30.513Z,1.90
2023-03-03T09:01:01.434Z,1.90
2023-03-03T09:03:28.219Z,2.00
2023-03-03T09:05:54.845Z,1.90
2023-03-03T09:08:21.482Z,2.00
2023-03-03T09:10:48.080Z,2.00
2023-03-03T09:13:17.107Z,1.90
2023-03-03T09:15:43.789Z,1.80
2023-03-03T09:18:24.730Z,1.80
2023-03-03T09:20:56.294Z,1.80
2023-03-03T09:23:42.254Z,1.90
2023-03-03T09:26:14.762Z,2.10
2023-03-03T09:28:42.482Z,1.90
2023-03-03T09:31:27.284Z,2.00
2023-03-03T09:33:57.531Z,2.10
2023-03-03T09:36:35.348Z,2.00
2023-03-03T09:39:19.438Z,1.90
2023-03-03T09:42:23.818Z,1.90
2023-03-03T09:45:03.881Z,1.80
2023-03-03T09:47:52.333Z,1.80
2023-03-03T09:50:26.607Z,1.70
2023-03-03T09:53:11.109Z,1.70
2023-03-03T09:55:47.438Z,1.80
2023-03-03T09:58:29.136Z,1.80
2023-03-03T10:01:28.076Z,1.80
2023-03-03T10:04:18.512Z,2.20
2023-03-03T10:07:18.378Z,2.20
2023-03-03T10:09:58.740Z,2.20
2023-03-03T10:12:48.535Z,2.30
2023-03-03T10:15:40.384Z,2.40
2023-03-03T10:18:28.190Z,2.70
2023-03-03T10:21:16.488Z,2.80
2023-03-03T10:23:58.903Z,2.90
2023-03-03T10:27:13.838Z,2.90
2023-03-03T10:29:43.830Z,3.00
2023-03-03T10:32:39.147Z,2.70
2023-03-03T10:35:37.825Z,2.70
2023-03-03T10:38:23.088Z,3.20
2023-03-03T10:40:55.597Z,3.10
2023-03-03T10:43:33.029Z,3.00
2023-03-03T10:46:12.676Z,3.10
2023-03-03T10:49:21.850Z,3.40
2023-03-03T10:52:37.872Z,3.50
2023-03-03T10:55:29.995Z,3.60
2023-03-03T10:58:08.619Z,3.40
2023-03-03T11:00:45.280Z,3.20
2023-03-03T11:03:26.275Z,3.50
2023-03-03T11:06:02.485Z,3.70
2023-03-03T11:08:40.106Z,3.80
2023-03-03T11:11:25.664Z,3.80
2023-03-03T11:14:03.194Z,4.20
2023-03-03T11:17:02.619Z,4.20
2023-03-03T11:19:41.682Z,4.30
2023-03-03T11:22:21.961Z,4.10
2023-03-03T11:25:01.380Z,4.30
2023-03-03T11:27:55.517Z,4.20
2023-03-03T11:30:50.491Z,4.50
2023-03-03T11:33:58.744Z,4.70
2023-03-03T11:36:35.162Z,4.40
2023-03-03T11:39:10.636Z,4.40
2023-03-03T11:41:42.400Z,3.70
2023-03-03T11:44:15.294Z,4.10
2023-03-03T11:47:18.255Z,4.70
2023-03-03T11:50:01.188Z,5.30
2023-03-03T11:52:43.305Z,5.50
2023-03-03T11:55:18.925Z,5.60
2023-03-03T11:57:54.327Z,5.40
2023-03-03T12:00:39.392Z,5.10
2023-03-03T12:03:31.845Z,5.20
2023-03-03T12:06:13.336Z,4.80
2023-03-03T12:09:12.716Z,4.50
2023-03-03T12:12:04.532Z,4.70
2023-03-03T12:14:53.221Z,4.80
2023-03-03T12:18:00.756Z,4.10
2023-03-03T12:20:48.999Z,4.50
2023-03-03T12:23:26.083Z,5.10
2023-03-03T12:26:07.704Z,5.20
2023-03-03T12:28:42.055Z,4.90
2023-03-03T12:31:30.013Z,5.40
2023-03-03T12:34:13.272Z,5.40
2023-03-03T12:36:50.505Z,5.50
2023-03-03T12:39:40.805Z,5.50
2023-03-03T12:42:38.209Z,5.30
2023-03-03T12:45:46.597Z,5.50
2023-03-03T12:48:19.051Z,5.10
2023-03-03T12:50:55.645Z,4.80
2023-03-03T12:53:32.206Z,4.40
2023-03-03T12:56:06.797Z,4.20
2023-03-03T12:59:13.743Z,4.70
2023-03-03T13:02:04.596Z,4.80
2023-03-03T13:04:37.392Z,5.20
2023-03-03T13:07:27.742Z,5.50
2023-03-03T13:10:18.264Z,5.80
2023-03-03T13:12:51.669Z,5.90
2023-03-03T13:15:31.637Z,5.40
2023-03-03T13:18:43.926Z,5.50
2023-03-03T13:21:18.284Z,5.70
2023-03-03T13:24:11.751Z,5.80
2023-03-03T13:26:47.700Z,5.80
2023-03-03T13:29:32.993Z,5.40
2023-03-03T13:32:17.281Z,5.30
2023-03-03T13:35:09.035Z,5.20
2023-03-03T13:37:44.785Z,5.00
2023-03-03T13:40:14.356Z,5.30
2023-03-03T13:42:51.263Z,5.70
2023-03-03T13:45:39.158Z,5.80
2023-03-03T13:48:36.372Z,6.10
2023-03-03T13:51:24.022Z,6.40
2023-03-03T13:54:13.683Z,6.40
2023-03-03T13:57:07.944Z,6.60
2023-03-03T13:59:47.311Z,5.60
2023-03-03T14:02:38.199Z,5.30
2023-03-03T14:05:25.770Z,4.90
2023-03-03T14:08:00.015Z,5.10
2023-03-03T14:10:39.079Z,5.60
2023-03-03T14:13:12.463Z,5.70
2023-03-03T14:16:02.282Z,6.50
2023-03-03T14:18:57.777Z,6.30
2023-03-03T14:21:35.088Z,5.80
2023-03-03T14:24:14.506Z,5.20
2023-03-03T14:26:52.615Z,4.90
2023-03-03T14:29:27.256Z,5.00
2023-03-03T14:31:55.572Z,4.70
2023-03-03T14:34:40.016Z,4.60
2023-03-03T14:37:24.686Z,4.90
2023-03-03T14:40:02.746Z,5.10
2023-03-03T14:42:38.961Z,5.30
2023-03-03T14:45:39.365Z,5.50
2023-03-03T14:48:24.433Z,5.90
2023-03-03T14:51:14.953Z,6.30
2023-03-03T14:53:47.842Z,6.00
2023-03-03T14:56:22.855Z,5.60
2023-03-03T14:58:50.206Z,5.30
2023-03-03T15:01:36.854Z,5.20
2023-03-03T15:04:15.472Z,5.20
2023-03-03T15:06:48.066Z,5.00
2023-03-03T15:09:20.795Z,5.00
2023-03-03T15:11:52.046Z,5.00
2023-03-03T15:14:22.461Z,4.90
2023-03-03T15:16:49.156Z,4.90
2023-03-03T15:19:34.455Z,5.30
2023-03-03T15:22:34.051Z,5.60
2023-03-03T15:25:13.491Z,6.10
2023-03-03T15:27:45.393Z,6.60
2023-03-03T15:30:21.496Z,6.60
2023-03-03T15:33:01.561Z,6.70
2023-03-03T15:35:43.529Z,6.50
2023-03-03T15:38:42.452Z,6.60
2023-03-03T15:41:17.819Z,5.90
2023-03-03T15:44:04.731Z,6.40
2023-03-03T15:46:36.997Z,6.90
2023-03-03T15:49:30.623Z,7.30
2023-03-03T15:52:13.597Z,7.30
2023-03-03T15:54:51.251Z,7.00
2023-03-03T15:57:39.500Z,6.50
2023-03-03T16:00:36.684Z,6.10
2023-03-03T16:03:14.245Z,6.00
2023-03-03T16:05:54.412Z,5.80
2023-03-03T16:08:44.002Z,5.40
2023-03-03T16:11:26.005Z,5.40
2023-03-03T16:14:34.121Z,5.30
2023-03-03T16:17:22.226Z,5.30
2023-03-03T16:20:02.850Z,5.00
2023-03-03T16:22:49.329Z,4.90
2023-03-03T16:25:18.624Z,4.70
2023-03-03T16:28:01.669Z,4.80
2023-03-03T16:30:42.413Z,4.70
2023-03-03T16:33:26.188Z,4.60
2023-03-03T16:36:07.552Z,4.50
2023-03-03T16:39:02.008Z,4.40
2023-03-03T16:41:48.854Z,4.30
2023-03-03T16:44:37.326Z,4.20
2023-03-03T16:47:37.053Z,4.00
2023-03-03T16:50:40.871Z,3.80
2023-03-03T16:53:26.355Z,3.70
2023-03-03T16:56:16.060Z,3.60
2023-03-03T16:58:58.875Z,3.40
2023-03-03T17:01:49.027Z,3.30
2023-03-03T17:04:47.181Z,3.20
2023-03-03T17:07:20.072Z,3.00
2023-03-03T17:09:55.938Z,2.90
2023-03-03T17:12:42.685Z,2.80
2023-03-03T17:15:37.088Z,2.70
2023-03-03T17:18:25.201Z,2.70
2023-03-03T17:20:58.231Z,2.60
2023-03-03T17:23:49.708Z,2.60
2023-03-03T17:26:22.507Z,2.50
2023-03-03T17:29:11.428Z,2.50
2023-03-03T17:32:12.113Z,2.60
2023-03-03T17:35:07.123Z,2.70
2023-03-03T17:38:11.201Z,2.80
2023-03-03T17:40:43.666Z,2.90
2023-03-03T17:43:40.466Z,2.90
2023-03-03T17:46:20.085Z,3.00
2023-03-03T17:49:15.623Z,3.00
2023-03-03T17:51:53.781Z,3.10
2023-03-03T17:54:53.287Z,3.20
2023-03-03T17:57:41.952Z,3.20
2023-03-03T18:00:35.732Z,3.30
2023-03-03T18:03:10.342Z,3.30
2023-03-03T18:06:05.019Z,3.20
2023-03-03T18:09:13.706Z,3.30
2023-03-03T18:11:58.044Z,3.30
2023-03-03T18:14:54.731Z,3.30
2023-03-03T18:17:36.394Z,3.40
2023-03-03T18:20:21.992Z,3.40
2023-03-03T18:22:51.061Z,3.40
2023-03-03T18:25:23.324Z,3.40
2023-03-03T18:28:03.221Z,3.50
2023-03-03T18:30:51.146Z,3.50
2023-03-03T18:33:31.912Z,3.60
2023-03-03T18:36:29.426Z,3.70
2023-03-03T18:38:57.532Z,3.70
2023-03-03T18:41:50.867Z,3.80
2023-03-03T18:44:31.446Z,3.70
2023-03-03T18:46:58.837Z,3.80
2023-03-03T18:49:49.120Z,3.80
2023-03-03T18:52:23.000Z,3.90
2023-03-03T18:55:10.389Z,3.90
2023-03-03T18:57:38.056Z,3.90
2023-03-03T19:00:27.139Z,3.90
2023-03-03T19:02:59.694Z,3.90
2023-03-03T19:05:35.844Z,4.00
2023-03-03T19:08:14.697Z,4.00
2023-03-03T19:10:52.365Z,4.00
2023-03-03T19:13:42.195Z,4.00
2023-03-03T19:16:30.475Z,4.00
2023-03-03T19:19:04.589Z,4.10
2023-03-03T19:21:33.809Z,4.10
2023-03-03T19:24:04.955Z,4.00
2023-03-03T19:26:45.557Z,4.00
2023-03-03T19:29:46.966Z,4.00
2023-03-03T19:32:37.070Z,4.00
2023-03-03T19:35:37.329Z,4.10
2023-03-03T19:38:34.647Z,4.10
2023-03-03T19:41:34.856Z,4.10
2023-03-03T19:44:17.186Z,4.20
2023-03-03T19:47:26.019Z,4.20
2023-03-03T19:50:18.193Z,4.20
2023-03-03T19:53:07.018Z,4.20
2023-03-03T19:56:01.100Z,4.10
2023-03-03T19:58:33.188Z,4.10
2023-03-03T20:01:14.095Z,4.20
2023-03-03T20:04:05.677Z,4.20
2023-03-03T20:06:36.560Z,4.20
2023-03-03T20:09:37.089Z,4.20
2023-03-03T20:12:18.512Z,4.10
2023-03-03T20:15:02.931Z,4.20
2023-03-03T20:17:58.435Z,4.20
2023-03-03T20:20:45.243Z,4.30
2023-03-03T20:23:32.106Z,4.30
2023-03-03T20:26:08.867Z,4.30
2023-03-03T20:29:07.623Z,4.20
2023-03-03T20:32:02.960Z,4.20
2023-03-03T20:34:36.572Z,4.20
2023-03-03T20:37:51.516Z,4.30
2023-03-03T20:40:45.670Z,4.30
2023-03-03T20:43:30.329Z,4.30
2023-03-03T20:46:07.789Z,4.30
2023-03-03T20:48:37.198Z,4.30
2023-03-03T20:51:09.749Z,4.30
2023-03-03T20:53:50.990Z,4.30
2023-03-03T20:56:28.689Z,4.30
2023-03-03T20:59:19.452Z,4.30
2023-03-03T21:02:02.556Z,4.30
2023-03-03T21:04:31.606Z,4.30
2023-03-03T21:06:59.067Z,4.30
2023-03-03T21:09:35.924Z,4.30
2023-03-03T21:12:23.698Z,4.30
2023-03-03T21:15:02.677Z,4.30
2023-03-03T21:17:31.275Z,4.30
2023-03-03T21:20:19.557Z,4.20
2023-03-03T21:22:46.478Z,4.20
2023-03-03T21:25:51.937Z,4.20
2023-03-03T21:28:33.832Z,4.40
2023-03-03T21:31:08.150Z,4.30
2023-03-03T21:33:51.639Z,4.30
2023-03-03T21:36:23.587Z,4.30
2023-03-03T21:38:53.382Z,4.30
2023-03-03T21:41:20.697Z,4.30
2023-03-03T21:43:49.930Z,4.30
2023-03-03T21:46:25.073Z,4.30
2023-03-03T21:48:52.274Z,4.30
2023-03-03T21:51:20.345Z,4.30
2023-03-03T21:53:47.611Z,4.30
2023-03-03T21:56:14.286Z,4.30
2023-03-03T21:58:41.777Z,4.30
2023-03-03T22:01:08.983Z,4.30
2023-03-03T22:03:36.487Z,4.40
2023-03-03T22:06:03.277Z,4.40
2023-03-03T22:08:30.056Z,4.40
2023-03-03T22:10:56.719Z,4.40
2023-03-03T22:13:25.456Z,4.40
2023-03-03T22:15:53.196Z,4.30
2023-03-03T22:18:20.476Z,4.30
2023-03-03T22:20:48.333Z,4.40
2023-03-03T22:23:16.351Z,4.40
2023-03-03T22:25:42.986Z,4.40
2023-03-03T22:28:09.592Z,4.40
2023-03-03T22:30:36.676Z,4.40
2023-03-03T22:33:03.373Z,4.40
2023-03-03T22:35:30.404Z,4.40
2023-03-03T22:37:57.308Z,4.40
2023-03-03T22:40:23.980Z,4.30
2023-03-03T22:42:50.830Z,4.40
2023-03-03T22:45:17.533Z,4.40
2023-03-03T22:47:44.172Z,4.40
2023-03-03T22:50:11.352Z,4.40
2023-03-03T22:52:37.958Z,4.30
2023-03-03T22:55:05.319Z,4.30
2023-03-03T22:57:32.062Z,4.30
2023-03-03T22:59:59.930Z,4.30
2023-03-03T23:02:26.595Z,4.30
2023-03-03T23:04:58.066Z,4.20
2023-03-03T23:07:26.268Z,4.20
2023-03-03T23:09:53.073Z,4.30
2023-03-03T23:12:20.192Z,4.20
2023-03-03T23:14:46.810Z,4.20
2023-03-03T23:17:13.395Z,4.30
2023-03-03T23:19:40.154Z,4.30
2023-03-03T23:22:06.904Z,4.20
2023-03-03T23:24:33.614Z,4.30
2023-03-03T23:27:00.905Z,4.20
2023-03-03T23:29:27.578Z,4.20
2023-03-03T23:31:54.275Z,4.20
2023-03-03T23:34:21.050Z,4.10
2023-03-03T23:36:47.955Z,4.10
2023-03-03T23:39:15.264Z,4.10
2023-03-03T23:41:42.017Z,4.10
2023-03-03T23:44:08.687Z,4.10
2023-03-03T23:46:35.350Z,4.20
2023-03-03T23:49:02.176Z,4.20
2023-03-03T23:51:28.802Z,4.10
2023-03-03T23:53:56.546Z,4.10
2023-03-03T23:56:23.247Z,4.20
2023-03-03T23:58:49.878Z,4.20
